createdAt,value
2018-03-31T00:00:58.821Z,50.58
2018-03-31T00:01:58.780Z,50.20
2018-03-31T00:02:58.758Z,49.63
2018-03-31T00:03:58.734Z,49.73
2018-03-31T00:04:58.716Z,50.96
2018-03-31T00:05:58.689Z,50.39
2018-03-31T00:06:58.655Z,49.82
2018-03-31T00:07:58.637Z,50.96
2018-03-31T00:08:58.596Z,50.39
2018-03-31T00:09:58.574Z,49.54
2018-03-31T00:10:58.551Z,49.25
2018-03-31T00:11:58.517Z,49.35
2018-03-31T00:12:58.505Z,49.73
2018-03-31T00:13:58.464Z,49.35
2018-03-31T00:14:58.447Z,49.35
2018-03-31T00:15:58.413Z,49.15
2018-03-31T00:16:58.390Z,48.49
2018-03-31T00:17:58.365Z,49.15
2018-03-31T00:18:58.344Z,53.31
2018-03-31T00:19:58.316Z,52.08
2018-03-31T00:20:58.278Z,51.70
2018-03-31T00:21:58.257Z,50.93
2018-03-31T00:22:58.236Z,50.58
2018-03-31T00:23:58.203Z,50.58
2018-03-31T00:24:58.184Z,51.03
2018-03-31T00:25:58.152Z,51.31
2018-03-31T00:26:58.121Z,52.36
2018-03-31T00:27:58.098Z,53.50
2018-03-31T00:28:58.070Z,54.93
2018-03-31T00:29:58.053Z,52.93
2018-03-31T00:30:58.019Z,53.03
2018-03-31T00:31:57.992Z,53.03
2018-03-31T00:32:57.966Z,51.22
2018-03-31T00:33:57.956Z,51.89
2018-03-31T00:34:57.915Z,52.84
2018-03-31T00:35:57.882Z,54.36
2018-03-31T00:36:57.860Z,55.02
2018-03-31T00:37:57.836Z,55.02
2018-03-31T00:38:57.809Z,54.93
2018-03-31T00:39:57.783Z,54.26
2018-03-31T00:40:57.750Z,53.76
2018-03-31T00:41:57.724Z,54.26
2018-03-31T00:42:57.700Z,54.74
2018-03-31T00:43:57.672Z,55.18
2018-03-31T00:44:57.652Z,54.24
2018-03-31T00:45:57.618Z,54.05
2018-03-31T00:46:57.588Z,53.76
2018-03-31T00:47:57.565Z,52.43
2018-03-31T00:48:57.560Z,52.91
2018-03-31T00:49:57.512Z,53.78
2018-03-31T00:50:57.484Z,52.81
2018-03-31T00:51:57.463Z,53.66
2018-03-31T00:52:57.423Z,55.02
2018-03-31T00:53:57.408Z,55.37
2018-03-31T00:54:57.374Z,54.52
2018-03-31T00:55:57.350Z,54.99
2018-03-31T00:56:57.325Z,55.18
2018-03-31T00:57:57.295Z,54.24
2018-03-31T00:58:57.272Z,54.52
2018-03-31T00:59:57.241Z,55.94
2018-03-31T01:00:57.215Z,56.04
2018-03-31T01:01:57.196Z,55.47
2018-03-31T01:02:57.162Z,54.24
2018-03-31T01:03:57.137Z,53.57
2018-03-31T01:04:57.104Z,52.91
2018-03-31T01:05:57.081Z,53.00
2018-03-31T01:06:57.051Z,53.95
2018-03-31T01:07:57.029Z,54.05
2018-03-31T01:08:57.004Z,54.24
2018-03-31T01:09:56.977Z,55.18
2018-03-31T01:10:56.988Z,57.37
2018-03-31T01:11:56.923Z,57.94
2018-03-31T01:12:56.895Z,57.65
2018-03-31T01:13:56.864Z,56.13
2018-03-31T01:14:56.844Z,55.94
2018-03-31T01:15:56.818Z,55.85
2018-03-31T01:16:56.784Z,56.61
2018-03-31T01:17:56.764Z,56.04
2018-03-31T01:18:56.733Z,56.04
2018-03-31T01:19:56.708Z,55.18
2018-03-31T01:20:56.682Z,54.80
2018-03-31T01:21:56.650Z,55.57
2018-03-31T01:22:56.622Z,56.04
2018-03-31T01:23:56.601Z,54.80
2018-03-31T01:24:56.572Z,55.09
2018-03-31T01:25:56.548Z,54.24
2018-03-31T01:26:56.533Z,54.05
2018-03-31T01:27:56.489Z,53.85
2018-03-31T01:28:56.468Z,53.66
2018-03-31T01:29:56.441Z,53.09
2018-03-31T01:30:56.406Z,52.81
2018-03-31T01:31:56.487Z,52.43
2018-03-31T01:32:56.357Z,52.43
2018-03-31T01:33:56.331Z,52.72
2018-03-31T01:34:56.302Z,53.28
2018-03-31T01:35:56.271Z,53.00
2018-03-31T01:36:56.253Z,53.76
2018-03-31T01:37:56.226Z,53.09
2018-03-31T01:38:56.197Z,51.86
2018-03-31T01:39:56.169Z,51.86
2018-03-31T01:40:56.147Z,51.76
2018-03-31T01:41:56.121Z,52.43
2018-03-31T01:42:56.084Z,52.43
2018-03-31T01:43:56.061Z,53.00
2018-03-31T01:44:56.036Z,52.81
2018-03-31T01:45:56.014Z,52.14
2018-03-31T01:46:55.984Z,54.24
2018-03-31T01:47:55.952Z,53.47
2018-03-31T01:48:55.922Z,53.95
2018-03-31T01:49:55.897Z,54.14
2018-03-31T01:50:55.876Z,53.38
2018-03-31T01:51:55.851Z,53.38
2018-03-31T01:52:55.810Z,53.09
2018-03-31T01:53:55.795Z,54.05
2018-03-31T01:54:55.802Z,54.24
2018-03-31T01:55:55.740Z,53.85
2018-03-31T01:56:55.711Z,54.05
2018-03-31T01:57:55.692Z,53.28
2018-03-31T01:58:55.660Z,53.28
2018-03-31T01:59:55.630Z,54.24
2018-03-31T02:00:55.616Z,53.38
2018-03-31T02:01:55.577Z,53.76
2018-03-31T02:02:55.555Z,54.05
2018-03-31T02:03:55.520Z,54.80
2018-03-31T02:04:55.498Z,54.14
2018-03-31T02:05:55.464Z,53.66
2018-03-31T02:06:55.448Z,53.47
2018-03-31T02:07:55.420Z,53.66
2018-03-31T02:08:55.384Z,55.09
2018-03-31T02:09:55.367Z,55.18
2018-03-31T02:10:55.332Z,54.71
2018-03-31T02:11:55.313Z,54.05
2018-03-31T02:12:55.281Z,53.95
2018-03-31T02:13:55.258Z,54.87
2018-03-31T02:14:55.226Z,54.87
2018-03-31T02:15:55.204Z,54.78
2018-03-31T02:16:55.194Z,54.02
2018-03-31T02:17:55.143Z,53.64
2018-03-31T02:18:55.120Z,54.87
2018-03-31T02:19:55.104Z,54.49
2018-03-31T02:20:55.066Z,53.64
2018-03-31T02:21:55.045Z,53.73
2018-03-31T02:22:55.006Z,54.02
2018-03-31T02:23:54.978Z,54.87
2018-03-31T02:24:54.958Z,56.68
2018-03-31T02:25:54.930Z,56.10
2018-03-31T02:26:54.907Z,55.82
2018-03-31T02:27:54.881Z,55.91
2018-03-31T02:28:54.848Z,56.87
2018-03-31T02:29:54.825Z,56.29
2018-03-31T02:30:54.795Z,56.49
2018-03-31T02:31:54.770Z,57.43
2018-03-31T02:32:54.748Z,57.91
2018-03-31T02:33:54.712Z,58.10
2018-03-31T02:34:54.690Z,59.43
2018-03-31T02:35:54.661Z,59.62
2018-03-31T02:36:54.637Z,60.28
2018-03-31T02:37:54.605Z,59.71
2018-03-31T02:38:54.592Z,59.33
2018-03-31T02:39:54.561Z,58.39
2018-03-31T02:40:54.528Z,58.39
2018-03-31T02:41:54.507Z,59.33
2018-03-31T02:42:54.477Z,58.39
2018-03-31T02:43:54.443Z,57.15
2018-03-31T02:44:54.425Z,57.53
2018-03-31T02:45:54.391Z,57.62
2018-03-31T02:46:54.366Z,57.53
2018-03-31T02:47:54.340Z,57.15
2018-03-31T02:48:54.315Z,57.91
2018-03-31T02:49:54.284Z,56.87
2018-03-31T02:50:54.258Z,56.10
2018-03-31T02:51:54.228Z,56.58
2018-03-31T02:52:54.204Z,56.01
2018-03-31T02:53:54.181Z,56.01
2018-03-31T02:54:54.140Z,56.49
2018-03-31T02:55:54.127Z,56.68
2018-03-31T02:56:54.094Z,56.96
2018-03-31T02:57:54.065Z,57.72
2018-03-31T02:58:54.044Z,56.87
2018-03-31T02:59:54.011Z,57.53
2018-03-31T03:00:54.004Z,56.29
2018-03-31T03:01:53.951Z,56.01
2018-03-31T03:02:53.937Z,56.29
2018-03-31T03:03:53.906Z,55.91
2018-03-31T03:04:53.882Z,55.54
2018-03-31T03:05:53.857Z,55.44
2018-03-31T03:06:53.816Z,55.82
2018-03-31T03:07:53.788Z,57.72
2018-03-31T03:08:53.769Z,56.96
2018-03-31T03:09:53.732Z,56.96
2018-03-31T03:10:53.719Z,57.81
2018-03-31T03:11:53.694Z,57.24
2018-03-31T03:12:53.654Z,56.87
2018-03-31T03:13:53.643Z,56.87
2018-03-31T03:14:53.667Z,57.34
2018-03-31T03:15:53.588Z,56.77
2018-03-31T03:16:53.547Z,57.43
2018-03-31T03:17:53.521Z,56.96
2018-03-31T03:18:53.499Z,56.49
2018-03-31T03:19:53.472Z,56.10
2018-03-31T03:20:53.446Z,56.58
2018-03-31T03:21:53.418Z,56.68
2018-03-31T03:22:53.394Z,56.20
2018-03-31T03:23:53.367Z,56.20
2018-03-31T03:24:53.334Z,56.77
2018-03-31T03:25:53.315Z,58.58
2018-03-31T03:26:53.275Z,57.91
2018-03-31T03:27:53.256Z,57.06
2018-03-31T03:28:53.236Z,56.10
2018-03-31T03:29:53.201Z,56.58
2018-03-31T03:30:53.179Z,57.72
2018-03-31T03:31:53.147Z,57.53
2018-03-31T03:32:53.123Z,57.81
2018-03-31T03:33:53.109Z,57.72
2018-03-31T03:34:53.070Z,56.96
2018-03-31T03:35:53.036Z,56.96
2018-03-31T03:36:53.012Z,59.62
2018-03-31T03:37:52.986Z,59.33
2018-03-31T03:38:52.990Z,58.76
2018-03-31T03:39:52.937Z,59.24
2018-03-31T03:40:52.902Z,59.14
2018-03-31T03:41:52.873Z,58.48
2018-03-31T03:42:52.858Z,58.39
2018-03-31T03:43:52.821Z,58.00
2018-03-31T03:44:52.802Z,58.48
2018-03-31T03:45:52.772Z,57.91
2018-03-31T03:46:52.742Z,57.72
2018-03-31T03:47:52.724Z,57.62
2018-03-31T03:48:52.686Z,57.53
2018-03-31T03:49:52.663Z,57.81
2018-03-31T03:50:52.635Z,58.39
2018-03-31T03:51:52.601Z,58.67
2018-03-31T03:52:52.586Z,58.76
2018-03-31T03:53:52.555Z,59.24
2018-03-31T03:54:52.529Z,57.62
2018-03-31T03:55:52.496Z,59.14
2018-03-31T03:56:52.473Z,58.48
2018-03-31T03:57:52.448Z,57.72
2018-03-31T03:58:52.419Z,58.10
2018-03-31T03:59:52.394Z,58.29
2018-03-31T04:00:52.368Z,59.24
2018-03-31T04:01:52.339Z,59.14
2018-03-31T04:02:52.315Z,58.95
2018-03-31T04:03:52.276Z,57.43
2018-03-31T04:04:52.259Z,57.62
2018-03-31T04:05:52.232Z,56.77
2018-03-31T04:06:52.201Z,57.15
2018-03-31T04:07:52.179Z,57.81
2018-03-31T04:08:52.143Z,57.24
2018-03-31T04:09:52.117Z,57.81
2018-03-31T04:10:52.093Z,58.86
2018-03-31T04:11:52.062Z,60.28
2018-03-31T04:12:52.044Z,59.43
2018-03-31T04:13:52.020Z,60.28
2018-03-31T04:14:51.992Z,60.95
2018-03-31T04:15:51.971Z,60.85
2018-03-31T04:16:51.931Z,60.85
2018-03-31T04:17:51.904Z,59.81
2018-03-31T04:18:51.883Z,58.86
2018-03-31T04:19:51.850Z,59.43
2018-03-31T04:20:51.827Z,58.58
2018-03-31T04:21:51.801Z,59.14
2018-03-31T04:22:51.769Z,59.14
2018-03-31T04:23:51.737Z,57.81
2018-03-31T04:24:51.715Z,57.62
2018-03-31T04:25:51.687Z,57.72
2018-03-31T04:26:51.661Z,57.53
2018-03-31T04:27:51.636Z,58.10
2018-03-31T04:28:51.605Z,59.91
2018-03-31T04:29:51.588Z,59.88
2018-03-31T04:30:51.550Z,59.11
2018-03-31T04:31:51.520Z,57.98
2018-03-31T04:32:51.503Z,59.24
2018-03-31T04:33:51.466Z,58.26
2018-03-31T04:34:51.446Z,57.88
2018-03-31T04:35:51.425Z,59.30
2018-03-31T04:36:51.392Z,58.86
2018-03-31T04:37:51.366Z,58.48
2018-03-31T04:38:51.333Z,57.62
2018-03-31T04:39:51.316Z,57.91
2018-03-31T04:40:51.290Z,57.72
2018-03-31T04:41:51.256Z,58.83
2018-03-31T04:42:51.228Z,59.30
2018-03-31T04:43:51.200Z,58.07
2018-03-31T04:44:51.178Z,59.40
2018-03-31T04:45:51.150Z,59.40
2018-03-31T04:46:51.126Z,59.21
2018-03-31T04:47:51.097Z,59.49
2018-03-31T04:48:51.067Z,59.40
2018-03-31T04:49:51.036Z,59.11
2018-03-31T04:50:51.015Z,59.21
2018-03-31T04:51:50.980Z,59.21
2018-03-31T04:52:50.959Z,60.16
2018-03-31T04:53:50.937Z,60.16
2018-03-31T04:54:50.906Z,59.49
2018-03-31T04:55:50.878Z,60.44
2018-03-31T04:56:50.851Z,59.78
2018-03-31T04:57:50.823Z,59.49
2018-03-31T04:58:50.797Z,58.92
2018-03-31T04:59:50.777Z,59.59
2018-03-31T05:00:50.741Z,59.68
2018-03-31T05:01:50.713Z,59.21
2018-03-31T05:02:50.690Z,59.21
2018-03-31T05:03:50.657Z,59.21
2018-03-31T05:04:50.643Z,58.83
2018-03-31T05:05:50.609Z,58.17
2018-03-31T05:06:50.579Z,58.64
2018-03-31T05:07:50.551Z,59.49
2018-03-31T05:08:50.525Z,60.53
2018-03-31T05:09:50.500Z,59.78
2018-03-31T05:10:50.472Z,59.21
2018-03-31T05:11:50.444Z,58.54
2018-03-31T05:12:50.410Z,59.68
2018-03-31T05:13:50.392Z,60.92
2018-03-31T05:14:50.364Z,60.73
2018-03-31T05:15:50.335Z,60.53
2018-03-31T05:16:50.314Z,59.40
2018-03-31T05:17:50.339Z,60.25
2018-03-31T05:18:50.248Z,61.49
2018-03-31T05:19:50.229Z,62.53
2018-03-31T05:20:50.195Z,62.53
2018-03-31T05:21:50.167Z,61.58
2018-03-31T05:22:50.143Z,61.39
2018-03-31T05:23:50.118Z,61.20
2018-03-31T05:24:50.089Z,61.87
2018-03-31T05:25:50.069Z,61.58
2018-03-31T05:26:50.041Z,61.39
2018-03-31T05:27:50.008Z,60.92
2018-03-31T05:28:49.987Z,60.92
2018-03-31T05:29:49.956Z,61.49
2018-03-31T05:30:49.930Z,61.49
2018-03-31T05:31:49.907Z,61.68
2018-03-31T05:32:49.867Z,61.20
2018-03-31T05:33:49.849Z,60.35
2018-03-31T05:34:49.815Z,60.63
2018-03-31T05:35:49.785Z,60.92
2018-03-31T05:36:49.775Z,60.63
2018-03-31T05:37:49.736Z,60.92
2018-03-31T05:38:49.716Z,61.01
2018-03-31T05:39:49.675Z,61.58
2018-03-31T05:40:49.663Z,61.01
2018-03-31T05:41:49.627Z,61.96
2018-03-31T05:42:49.605Z,61.39
2018-03-31T05:43:49.571Z,61.39
2018-03-31T05:44:49.541Z,62.05
2018-03-31T05:45:49.524Z,61.39
2018-03-31T05:46:49.488Z,62.91
2018-03-31T05:47:49.467Z,61.20
2018-03-31T05:48:49.437Z,59.49
2018-03-31T05:49:49.417Z,59.21
2018-03-31T05:50:49.382Z,58.00
2018-03-31T05:51:49.360Z,58.67
2018-03-31T05:52:49.347Z,59.68
2018-03-31T05:53:49.302Z,60.63
2018-03-31T05:54:49.278Z,60.82
2018-03-31T05:55:49.245Z,61.30
2018-03-31T05:56:49.214Z,63.29
2018-03-31T05:57:49.212Z,64.65
2018-03-31T05:58:49.166Z,63.89
2018-03-31T05:59:49.225Z,62.27
2018-03-31T06:00:49.115Z,60.76
2018-03-31T06:01:49.086Z,59.71
2018-03-31T06:02:49.060Z,58.76
2018-03-31T06:03:49.032Z,58.20
2018-03-31T06:04:49.001Z,58.00
2018-03-31T06:05:48.978Z,57.81
2018-03-31T06:06:48.957Z,57.15
2018-03-31T06:07:48.918Z,58.29
2018-03-31T06:08:48.899Z,59.81
2018-03-31T06:09:48.871Z,58.95
2018-03-31T06:10:48.838Z,57.62
2018-03-31T06:11:48.815Z,57.72
2018-03-31T06:12:48.789Z,58.86
2018-03-31T06:13:48.762Z,60.57
2018-03-31T06:14:48.736Z,61.33
2018-03-31T06:15:48.702Z,62.85
2018-03-31T06:16:48.673Z,62.08
2018-03-31T06:17:48.657Z,60.47
2018-03-31T06:18:48.625Z,61.33
2018-03-31T06:19:48.603Z,60.66
2018-03-31T06:20:48.571Z,60.57
2018-03-31T06:21:48.548Z,62.37
2018-03-31T06:22:48.516Z,61.52
2018-03-31T06:23:48.490Z,63.32
2018-03-31T06:24:48.469Z,63.04
2018-03-31T06:25:48.441Z,61.80
2018-03-31T06:26:48.410Z,60.57
2018-03-31T06:27:48.390Z,60.28
2018-03-31T06:28:48.358Z,58.76
2018-03-31T06:29:48.329Z,58.89
2018-03-31T06:30:48.307Z,59.24
2018-03-31T06:31:48.272Z,60.50
2018-03-31T06:32:48.254Z,62.31
2018-03-31T06:33:48.228Z,63.26
2018-03-31T06:34:48.195Z,63.51
2018-03-31T06:35:48.170Z,64.65
2018-03-31T06:36:48.144Z,64.40
2018-03-31T06:37:48.117Z,65.98
2018-03-31T06:38:48.100Z,65.73
2018-03-31T06:39:48.070Z,67.15
2018-03-31T06:40:48.034Z,66.49
2018-03-31T06:41:48.008Z,63.92
2018-03-31T06:42:47.984Z,64.69
2018-03-31T06:43:47.962Z,66.01
2018-03-31T06:44:47.925Z,65.63
2018-03-31T06:45:47.900Z,63.64
2018-03-31T06:46:47.877Z,67.25
2018-03-31T06:47:47.843Z,67.91
2018-03-31T06:48:47.818Z,68.01
2018-03-31T06:49:47.790Z,67.82
2018-03-31T06:50:47.779Z,70.10
2018-03-31T06:51:47.747Z,70.48
2018-03-31T06:52:47.761Z,69.81
2018-03-31T06:53:47.682Z,70.29
2018-03-31T06:54:47.660Z,71.14
2018-03-31T06:55:47.644Z,70.95
2018-03-31T06:56:47.633Z,70.86
2018-03-31T06:57:47.743Z,71.71
2018-03-31T06:58:47.547Z,70.38
2018-03-31T06:59:47.521Z,70.76
2018-03-31T07:00:47.492Z,71.14
2018-03-31T07:01:47.460Z,69.62
2018-03-31T07:02:47.444Z,68.01
2018-03-31T07:03:47.417Z,66.49
2018-03-31T07:04:47.388Z,65.92
2018-03-31T07:05:47.365Z,65.35
2018-03-31T07:06:47.331Z,65.82
2018-03-31T07:07:47.309Z,66.49
2018-03-31T07:08:47.283Z,67.25
2018-03-31T07:09:47.259Z,64.69
2018-03-31T07:10:47.229Z,65.35
2018-03-31T07:11:47.203Z,67.34
2018-03-31T07:12:47.181Z,66.58
2018-03-31T07:13:47.145Z,66.90
2018-03-31T07:14:47.118Z,67.28
2018-03-31T07:15:47.096Z,68.42
2018-03-31T07:16:47.068Z,68.52
2018-03-31T07:17:47.043Z,68.42
2018-03-31T07:18:47.022Z,67.66
2018-03-31T07:19:46.980Z,67.94
2018-03-31T07:20:46.957Z,66.05
2018-03-31T07:21:46.925Z,67.38
2018-03-31T07:22:46.914Z,67.19
2018-03-31T07:23:46.888Z,66.52
2018-03-31T07:24:46.846Z,68.61
2018-03-31T07:25:46.827Z,67.85
2018-03-31T07:26:46.794Z,68.13
2018-03-31T07:27:46.777Z,69.37
2018-03-31T07:28:46.759Z,68.99
2018-03-31T07:29:46.722Z,70.99
2018-03-31T07:30:46.690Z,70.13
2018-03-31T07:31:46.663Z,69.94
2018-03-31T07:32:46.642Z,68.61
2018-03-31T07:33:46.611Z,69.46
2018-03-31T07:34:46.591Z,70.70
2018-03-31T07:35:46.560Z,71.94
2018-03-31T07:36:46.529Z,72.13
2018-03-31T07:37:46.524Z,71.84
2018-03-31T07:38:46.474Z,72.70
2018-03-31T07:39:46.446Z,72.64
2018-03-31T07:40:46.489Z,71.46
2018-03-31T07:41:46.401Z,70.79
2018-03-31T07:42:46.370Z,71.59
2018-03-31T07:43:46.346Z,70.83
2018-03-31T07:44:46.315Z,70.36
2018-03-31T07:45:46.288Z,74.54
2018-03-31T07:46:46.283Z,74.26
2018-03-31T07:47:46.243Z,74.07
2018-03-31T07:48:46.206Z,74.73
2018-03-31T07:49:46.186Z,73.78
2018-03-31T07:50:46.165Z,71.59
2018-03-31T07:51:46.127Z,74.26
2018-03-31T07:52:46.109Z,74.35
2018-03-31T07:53:46.082Z,73.30
2018-03-31T07:54:46.052Z,75.30
2018-03-31T07:55:46.108Z,73.02
2018-03-31T07:56:46.009Z,71.88
2018-03-31T07:57:45.975Z,71.12
2018-03-31T07:58:45.952Z,75.68
2018-03-31T07:59:45.923Z,73.97
2018-03-31T08:00:45.891Z,75.02
2018-03-31T08:01:45.870Z,74.63
2018-03-31T08:02:45.840Z,76.44
2018-03-31T08:03:45.811Z,76.35
2018-03-31T08:04:45.902Z,75.11
2018-03-31T08:05:45.756Z,74.16
2018-03-31T08:06:45.737Z,74.07
2018-03-31T08:07:45.709Z,73.15
2018-03-31T08:08:45.678Z,72.30
2018-03-31T08:09:45.655Z,73.82
2018-03-31T08:10:45.634Z,72.49
2018-03-31T08:11:45.603Z,73.15
2018-03-31T08:12:45.573Z,76.29
2018-03-31T08:13:45.555Z,79.14
2018-03-31T08:14:45.524Z,80.66
2018-03-31T08:15:45.496Z,78.19
2018-03-31T08:16:45.506Z,77.62
2018-03-31T08:17:45.443Z,77.72
2018-03-31T08:18:45.416Z,78.67
2018-03-31T08:19:45.390Z,78.19
2018-03-31T08:20:45.361Z,79.24
2018-03-31T08:21:45.338Z,78.29
2018-03-31T08:22:45.309Z,81.62
2018-03-31T08:23:45.287Z,80.95
2018-03-31T08:24:45.257Z,80.38
2018-03-31T08:25:45.232Z,79.62
2018-03-31T08:26:45.211Z,81.90
2018-03-31T08:27:45.185Z,80.66
2018-03-31T08:28:45.155Z,81.14
2018-03-31T08:29:45.135Z,83.04
2018-03-31T08:30:45.104Z,81.71
2018-03-31T08:31:45.076Z,81.62
2018-03-31T08:32:45.050Z,81.52
2018-03-31T08:33:45.019Z,84.85
2018-03-31T08:34:45.005Z,83.52
2018-03-31T08:35:44.970Z,84.85
2018-03-31T08:36:44.945Z,89.89
2018-03-31T08:37:44.918Z,92.65
2018-03-31T08:38:44.898Z,92.08
2018-03-31T08:39:44.864Z,93.32
2018-03-31T08:40:44.854Z,93.04
2018-03-31T08:41:44.821Z,93.98
2018-03-31T08:42:44.779Z,91.22
2018-03-31T08:43:44.758Z,92.27
2018-03-31T08:44:44.735Z,93.70
2018-03-31T08:45:44.703Z,91.32
2018-03-31T08:46:44.678Z,92.65
2018-03-31T08:47:44.648Z,92.75
2018-03-31T08:48:44.627Z,95.89
2018-03-31T08:49:44.603Z,95.22
2018-03-31T08:50:44.567Z,93.60
2018-03-31T08:51:44.546Z,93.41
2018-03-31T08:52:44.524Z,90.75
2018-03-31T08:53:44.490Z,92.27
2018-03-31T08:54:44.465Z,93.98
2018-03-31T08:55:44.438Z,89.42
2018-03-31T08:56:44.415Z,90.28
2018-03-31T08:57:44.383Z,92.51
2018-03-31T08:58:44.367Z,91.65
2018-03-31T08:59:44.330Z,90.61
2018-03-31T09:00:44.308Z,92.75
2018-03-31T09:01:44.291Z,91.75
2018-03-31T09:02:44.254Z,92.79
2018-03-31T09:03:44.238Z,89.94
2018-03-31T09:04:44.205Z,93.46
2018-03-31T09:05:44.174Z,90.32
2018-03-31T09:06:44.158Z,96.98
2018-03-31T09:07:44.123Z,93.74
2018-03-31T09:08:44.155Z,94.22
2018-03-31T09:09:44.072Z,95.36
2018-03-31T09:10:44.053Z,96.03
2018-03-31T09:11:44.019Z,93.84
2018-03-31T09:12:43.984Z,96.60
2018-03-31T09:13:43.968Z,96.12
2018-03-31T09:14:43.932Z,94.22
2018-03-31T09:15:43.920Z,94.51
2018-03-31T09:16:43.898Z,94.98
2018-03-31T09:17:43.865Z,95.46
2018-03-31T09:18:43.842Z,93.55
2018-03-31T09:19:43.804Z,95.36
2018-03-31T09:20:43.779Z,96.79
2018-03-31T09:21:43.758Z,94.65
2018-03-31T09:22:45.782Z,96.65
2018-03-31T09:23:43.700Z,94.46
2018-03-31T09:24:44.450Z,95.12
2018-03-31T09:25:43.653Z,94.56
2018-03-31T09:26:43.634Z,94.84
2018-03-31T09:27:43.592Z,94.27
2018-03-31T09:28:43.571Z,94.65
2018-03-31T09:29:43.548Z,93.22
2018-03-31T09:30:43.515Z,93.22
2018-03-31T09:31:43.492Z,93.22
2018-03-31T09:32:43.469Z,93.79
2018-03-31T09:33:43.443Z,95.60
2018-03-31T09:34:43.412Z,94.93
2018-03-31T09:35:43.389Z,94.17
2018-03-31T09:36:43.362Z,95.70
2018-03-31T09:37:43.333Z,95.12
2018-03-31T09:38:43.317Z,94.46
2018-03-31T09:39:43.281Z,92.94
2018-03-31T09:40:43.251Z,94.37
2018-03-31T09:41:43.226Z,94.27
2018-03-31T09:42:43.205Z,94.56
2018-03-31T09:43:43.181Z,94.27
2018-03-31T09:44:43.148Z,95.79
2018-03-31T09:45:43.128Z,95.32
2018-03-31T09:46:43.172Z,93.41
2018-03-31T09:47:43.071Z,93.51
2018-03-31T09:48:43.047Z,94.74
2018-03-31T09:49:43.017Z,93.79
2018-03-31T09:50:42.997Z,93.03
2018-03-31T09:51:42.963Z,94.65
2018-03-31T09:52:42.941Z,94.03
2018-03-31T09:53:42.914Z,93.27
2018-03-31T09:54:42.881Z,91.74
2018-03-31T09:55:42.862Z,92.84
2018-03-31T09:56:42.853Z,92.69
2018-03-31T09:57:42.817Z,92.60
2018-03-31T09:58:42.788Z,91.94
2018-03-31T09:59:42.762Z,91.94
2018-03-31T10:00:42.752Z,92.60
2018-03-31T10:01:42.709Z,93.08
2018-03-31T10:02:42.680Z,93.55
2018-03-31T10:03:42.654Z,92.32
2018-03-31T10:04:42.630Z,90.60
2018-03-31T10:05:42.601Z,90.89
2018-03-31T10:06:42.572Z,89.75
2018-03-31T10:07:42.551Z,88.79
2018-03-31T10:08:42.528Z,89.94
2018-03-31T10:09:42.494Z,90.41
2018-03-31T10:10:42.483Z,91.46
2018-03-31T10:11:42.449Z,92.50
2018-03-31T10:12:42.419Z,92.41
2018-03-31T10:13:42.392Z,92.32
2018-03-31T10:14:42.374Z,92.13
2018-03-31T10:15:42.335Z,92.60
2018-03-31T10:16:42.319Z,92.50
2018-03-31T10:17:42.327Z,93.55
2018-03-31T10:18:42.258Z,93.46
2018-03-31T10:19:42.238Z,92.50
2018-03-31T10:20:42.202Z,91.84
2018-03-31T10:21:42.184Z,92.41
2018-03-31T10:22:42.159Z,93.08
2018-03-31T10:23:42.125Z,92.89
2018-03-31T10:24:42.102Z,92.50
2018-03-31T10:25:42.078Z,90.60
2018-03-31T10:26:42.051Z,90.70
2018-03-31T10:27:42.026Z,91.36
2018-03-31T10:28:41.999Z,89.07
2018-03-31T10:29:41.977Z,90.60
2018-03-31T10:30:41.944Z,90.84
2018-03-31T10:31:41.927Z,90.98
2018-03-31T10:32:41.894Z,92.17
2018-03-31T10:33:41.868Z,92.36
2018-03-31T10:34:41.854Z,90.74
2018-03-31T10:35:41.818Z,88.84
2018-03-31T10:36:41.795Z,87.88
2018-03-31T10:37:41.770Z,87.79
2018-03-31T10:38:41.750Z,89.31
2018-03-31T10:39:41.709Z,89.36
2018-03-31T10:40:41.693Z,90.79
2018-03-31T10:41:41.671Z,89.26
2018-03-31T10:42:41.694Z,87.45
2018-03-31T10:43:41.613Z,88.40
2018-03-31T10:44:41.589Z,90.88
2018-03-31T10:45:41.567Z,89.26
2018-03-31T10:46:41.560Z,88.78
2018-03-31T10:47:41.522Z,86.11
2018-03-31T10:48:41.489Z,83.96
2018-03-31T10:49:41.464Z,83.01
2018-03-31T10:50:41.448Z,83.11
2018-03-31T10:51:41.411Z,85.01
2018-03-31T10:52:41.383Z,83.39
2018-03-31T10:53:41.366Z,78.43
2018-03-31T10:54:41.334Z,81.62
2018-03-31T10:55:41.310Z,83.81
2018-03-31T10:56:41.287Z,82.29
2018-03-31T10:57:41.258Z,79.99
2018-03-31T10:58:41.238Z,78.28
2018-03-31T10:59:41.201Z,79.90
2018-03-31T11:00:41.192Z,80.66
2018-03-31T11:01:41.157Z,82.48
2018-03-31T11:02:41.142Z,76.75
2018-03-31T11:03:41.110Z,75.13
2018-03-31T11:04:41.082Z,79.23
2018-03-31T11:05:41.063Z,86.10
2018-03-31T11:06:41.030Z,81.24
2018-03-31T11:07:41.006Z,77.13
2018-03-31T11:08:40.987Z,80.57
2018-03-31T11:09:40.960Z,80.57
2018-03-31T11:10:40.938Z,76.31
2018-03-31T11:11:40.913Z,76.50
2018-03-31T11:12:40.883Z,76.98
2018-03-31T11:13:40.860Z,75.45
2018-03-31T11:14:40.836Z,73.73
2018-03-31T11:15:40.818Z,76.31
2018-03-31T11:16:40.789Z,74.40
2018-03-31T11:17:40.766Z,74.88
2018-03-31T11:18:40.736Z,71.82
2018-03-31T11:19:40.711Z,70.54
2018-03-31T11:20:40.695Z,76.65
2018-03-31T11:21:40.699Z,74.65
2018-03-31T11:22:40.634Z,76.56
2018-03-31T11:23:40.620Z,78.28
2018-03-31T11:24:40.584Z,75.51
2018-03-31T11:25:40.567Z,77.89
2018-03-31T11:26:40.539Z,70.83
2018-03-31T11:27:40.512Z,72.74
2018-03-31T11:28:40.492Z,77.13
2018-03-31T11:29:40.459Z,79.23
2018-03-31T11:30:40.450Z,81.04
2018-03-31T11:31:40.426Z,78.47
2018-03-31T11:32:40.396Z,77.51
2018-03-31T11:33:40.374Z,77.08
2018-03-31T11:34:40.343Z,73.79
2018-03-31T11:35:40.323Z,77.36
2018-03-31T11:36:40.287Z,74.21
2018-03-31T11:37:40.275Z,70.67
2018-03-31T11:38:40.241Z,70.10
2018-03-31T11:39:40.216Z,70.10
2018-03-31T11:40:40.200Z,72.49
2018-03-31T11:41:40.168Z,74.59
2018-03-31T11:42:40.144Z,73.83
2018-03-31T11:43:40.131Z,73.00
2018-03-31T11:44:40.091Z,68.04
2018-03-31T11:45:40.071Z,68.32
2018-03-31T11:46:40.051Z,70.71
2018-03-31T11:47:40.032Z,68.51
2018-03-31T11:48:39.996Z,68.90
2018-03-31T11:49:39.971Z,66.22
2018-03-31T11:50:39.954Z,66.92
2018-03-31T11:51:39.924Z,65.11
2018-03-31T11:52:39.905Z,66.06
2018-03-31T11:53:39.883Z,64.43
2018-03-31T11:54:39.854Z,63.29
2018-03-31T11:55:39.828Z,62.33
2018-03-31T11:56:39.803Z,58.80
2018-03-31T11:57:39.776Z,58.22
2018-03-31T11:58:39.761Z,59.27
2018-03-31T11:59:39.736Z,59.24
2018-03-31T12:00:39.705Z,60.01
2018-03-31T12:01:39.682Z,60.04
2018-03-31T12:02:39.662Z,64.15
2018-03-31T12:03:39.631Z,64.25
2018-03-31T12:04:39.621Z,66.25
2018-03-31T12:05:39.591Z,64.43
2018-03-31T12:06:39.586Z,61.66
2018-03-31T12:07:39.541Z,63.89
2018-03-31T12:08:39.519Z,65.77
2018-03-31T12:09:39.491Z,64.62
2018-03-31T12:10:39.474Z,63.03
2018-03-31T12:11:39.450Z,62.81
2018-03-31T12:12:39.419Z,61.85
2018-03-31T12:13:39.396Z,60.52
2018-03-31T12:14:39.377Z,60.55
2018-03-31T12:15:39.347Z,59.40
2018-03-31T12:16:39.327Z,57.36
2018-03-31T12:17:39.307Z,56.12
2018-03-31T12:18:39.275Z,54.59
2018-03-31T12:19:39.263Z,54.78
2018-03-31T12:20:39.230Z,55.45
2018-03-31T12:21:39.211Z,55.35
2018-03-31T12:22:39.183Z,55.07
2018-03-31T12:23:39.160Z,55.45
2018-03-31T12:24:39.150Z,56.31
2018-03-31T12:25:39.113Z,56.40
2018-03-31T12:26:39.092Z,56.40
2018-03-31T12:27:39.111Z,56.91
2018-03-31T12:28:39.045Z,57.20
2018-03-31T12:29:39.024Z,59.11
2018-03-31T12:30:38.993Z,56.82
2018-03-31T12:31:38.981Z,53.85
2018-03-31T12:32:38.948Z,54.14
2018-03-31T12:33:38.924Z,54.33
2018-03-31T12:34:38.903Z,55.38
2018-03-31T12:35:38.876Z,54.14
2018-03-31T12:36:38.909Z,53.75
2018-03-31T12:37:38.833Z,55.47
2018-03-31T12:38:38.848Z,55.57
2018-03-31T12:39:38.844Z,55.10
2018-03-31T12:40:38.819Z,54.33
2018-03-31T12:41:38.737Z,55.29
2018-03-31T12:42:38.718Z,56.62
2018-03-31T12:43:38.688Z,55.67
2018-03-31T12:44:38.676Z,55.29
2018-03-31T12:45:38.643Z,57.48
2018-03-31T12:46:38.626Z,58.83
2018-03-31T12:47:38.604Z,55.96
2018-03-31T12:48:38.572Z,53.66
2018-03-31T12:49:38.553Z,55.26
2018-03-31T12:50:38.527Z,57.17
2018-03-31T12:51:38.520Z,56.88
2018-03-31T12:52:38.480Z,58.22